Flight Track Log - Related Links

Times and Time Zones

All times are in EDT time to prevent confusion due to time zone crossing. See the WEW307 flight status page for this flight to view local times or setup timezone preferences in your user account.

Time Position Orientation Groundspeed Altitude Reporting Facility
EDT Latitude Longitude Course Direction KTS MPH feet Rate Location/Type
Fri 05:58:59 PM 52.1500 -106.7000 142° Southeast 130 150 1,900  Level Winnipeg Center
Fri 05:59:59 PM 52.1500 -106.6500 90° East 150 173 3,300 1,350 Climbing Winnipeg Center
Fri 06:00:59 PM 52.1333 -106.5833 112° Southeast 150 173 4,600 1,300 Climbing Winnipeg Center
Fri 06:01:59 PM 52.1167 -106.5000 108° East 160 184 5,900 1,250 Climbing Winnipeg Center
Fri 06:02:59 PM 52.1167 -106.4500 90° East 160 184 7,100 1,150 Climbing Winnipeg Center
Fri 06:03:59 PM 52.1000 -106.3500 105° East 170 196 8,200 1,050 Climbing Winnipeg Center
Fri 06:04:00 PM 51.8362 -106.2928 142° Southeast  Level Estimated
Fri 06:04:59 PM 52.0667 -106.3000 137° Southeast 180 207 9,200  Level Winnipeg Center
Fri 06:05:59 PM 52.0500 -106.2167 108° East 190 219 10,300 950 Climbing Winnipeg Center
Fri 06:06:59 PM 52.0167 -106.1500 129° Southeast 190 219 11,100 750 Climbing Winnipeg Center
Fri 06:07:59 PM 51.9500 -106.1000 155° Southeast 200 230 11,800 800 Climbing Winnipeg Center
Fri 06:08:59 PM 51.9167 -106.0667 148° Southeast 200 230 12,700 800 Climbing Winnipeg Center
Fri 06:09:59 PM 51.8500 -106.0000 148° Southeast 200 230 13,400 700 Climbing Winnipeg Center
Fri 06:10:59 PM 51.8333 -105.9500 118° Southeast 200 230 14,100 533 Climbing Winnipeg Center
Fri 06:12:59 PM 51.7667 -105.7667 120° Southeast 210 242 15,000 300 Climbing Winnipeg Center
Fri 06:13:59 PM 51.7500 -105.6833 108° East 230 265 15,000 -50 Level Winnipeg Center
Fri 06:14:59 PM 51.6833 -105.6167 148° Southeast 240 276 14,900  Descending Winnipeg Center
Fri 06:15:59 PM 51.6167 -105.5833 163° South 240 276 15,000 50 Climbing Winnipeg Center
Fri 06:16:59 PM 51.5667 -105.5500 157° South 230 265 15,000  Level Winnipeg Center
Fri 06:17:59 PM 51.5167 -105.5000 148° Southeast 240 276 15,000  Level Winnipeg Center
Fri 06:18:59 PM 51.4500 -105.4667 163° South 240 276 15,000  Level Winnipeg Center
Fri 06:19:59 PM 51.3833 -105.4333 163° South 240 276 15,000  Level Winnipeg Center
Fri 06:20:59 PM 51.3333 -105.3833 148° Southeast 240 276 15,000  Level Winnipeg Center
Fri 06:21:59 PM 51.2500 -105.3500 166° South 240 276 15,000  Level Winnipeg Center
Fri 06:22:59 PM 51.2000 -105.3167 157° South 240 276 15,000  Level Winnipeg Center
Fri 06:23:59 PM 51.1333 -105.2500 148° Southeast 240 276 15,000  Level Winnipeg Center
Fri 06:24:59 PM 51.0833 -105.2167 157° South 240 276 15,000 -550 Level Winnipeg Center
Fri 06:25:59 PM 51.0167 -105.1667 155° Southeast 240 276 13,900 -1,300 Descending Winnipeg Center
Fri 06:26:59 PM 50.9500 -105.1333 163° South 250 288 12,400 -1,500 Descending Winnipeg Center
Fri 06:27:59 PM 50.8833 -105.1000 162° South 250 288 10,900 -1,450 Descending Winnipeg Center
Fri 06:28:59 PM 50.8167 -105.0333 148° Southeast 260 299 9,500 -1,350 Descending Winnipeg Center
Fri 06:29:59 PM 50.7667 -105.0000 157° South 240 276 8,200 -1,250 Descending Winnipeg Center
Fri 06:30:59 PM 50.7000 -104.9500 155° Southeast 220 253 7,000 -1,150 Descending Winnipeg Center
Fri 06:31:59 PM 50.6667 -104.9167 148° Southeast 200 230 5,900 -1,100 Descending Winnipeg Center
Fri 06:32:59 PM 50.6167 -104.8833 157° South 200 230 4,800 -950 Descending Winnipeg Center
Fri 06:33:59 PM 50.5667 -104.8500 157° South 180 207 4,000 -650 Descending Winnipeg Center
Fri 06:34:59 PM 50.5167 -104.8167 157° South 180 207 3,500 -550 Descending Winnipeg Center
Fri 06:35:59 PM 50.4833 -104.7833 148° Southeast 160 184 2,900 -500 Descending Winnipeg Center
Fri 06:36:59 PM 50.4500 -104.7333 136° Southeast 140 161 2,500 -450 Descending Winnipeg Center
Fri 06:37:59 PM 50.4167 -104.7000 147° Southeast 130 150 2,000 -300 Descending Winnipeg Center
Fri 06:38:59 PM 50.4000 -104.6667 128° Southeast 90 104 1,900 -100 Descending Winnipeg Center

Login

Don't have an account? Register now (free) for customized features, flight alerts, and more!